KBOS

General Edward Lawrence Logan International Airport

Code ICAO KBOS
Code IATA BOS
Nom General Edward Lawrence Logan International Airport
Emplacement Boston, Massachusetts, US
Élévation 20 pieds / 6.1 mètres
Latitude 42.36429977
Longitude -71.00520325
METAR KBOS 080554Z 35006KT 10SM FEW170 OVC220 09/03 A2988 RMK AO2 SLP116 T00890033 10100 20089 58022
Informations extras Afficher cartes et CFS
Afficher NOTAMS
Piste Longueur Largeur Surface Élévation
04L 7861 ft 150 ft ASP 14 ft
04R 10005 ft 150 ft ASP 18 ft
09 7000 ft 150 ft ASP 17 ft
14 5000 ft 100 ft ASPH-G 17 ft
15L 2557 ft 100 ft ASP 15 ft
15R 10083 ft 150 ft ASP 17 ft
22R 7861 ft 150 ft ASP 15 ft
22L 10005 ft 150 ft ASP 16 ft
27 7000 ft 150 ft ASP 15 ft
32 5000 ft 100 ft ASPH-G 20 ft
33R 2557 ft 100 ft ASP 14 ft
33L 10083 ft 150 ft ASP 15 ft